Utilizamos cookies propias y de terceros para ofrecer nuestros servicios, recoger información estadística e incluir publicidad. Si continua navegando acepta su instalación y uso. Puede cambiar la configuración u obtener más información en nuestra ACEPTAR | Más información

 INFORMACIÓN METAR y TAF
METAR FOR LEVD
ADDS - METARS form results

(0605 UTC 21 October 2018)
Data provider http://aviationweather.gov/metar/data/
 
METAR text: LEVD 210600Z 08008KT CAVOK 11/10 Q1023
Conditions at: LEVD (VALLADOLID(MIL/C, ES) observed 0600 UTC 21 October 2018
Temperature: 11.0°C (52°F)
Dewpoint: 10.0°C (50°F) [RH = 94%]
Pressure (altimeter): 30.21 inches Hg (1023.0 mb)
Winds: from the E (80 degrees) at 9 MPH (8 knots; 4.1 m/s)
Visibility: 6 or more miles (10+ km)
Ceiling: ceiling and visibility are OK
Clouds: unknown
Weather: no significant weather observed at this time

METAR text: LEVD 210530Z 08008KT 040V100 CAVOK 11/10 Q1023
Conditions at: LEVD (VALLADOLID(MIL/C, ES) observed 0530 UTC 21 October 2018
Temperature: 11.0°C (52°F)
Dewpoint: 10.0°C (50°F) [RH = 94%]
Pressure (altimeter): 30.21 inches Hg (1023.0 mb)
Winds: from the E (80 degrees) at 9 MPH (8 knots; 4.1 m/s)
Visibility: 6 or more miles (10+ km)
Ceiling: ceiling and visibility are OK
Clouds: unknown
Weather: no significant weather observed at this time

Forecast for: LEVD (VALLADOLID(MIL/C, ES)
Text: TAF LEVD 210500Z 2106/2206 08008KT 9999 FEW040 TX24/2115Z TN12/2106Z
Forecast period: 0600 UTC 21 October 2018 to 0600 UTC 22 October 2018
Forecast type: FROM: standard forecast or significant change
Winds: from the E (80 degrees) at 9 MPH (8 knots; 4.1 m/s)
Visibility: 6 or more miles 10+ km)
Ceiling: at least 12,000 feet AGL
Clouds: few clouds at 4000 feet AGL
Weather: no significant weather forecast for this period
Text: PROB30
Forecast period: 0600 to 0800 UTC 21 October 2018
Forecast type: TEMPORARY: The following changes expected for less than half the time period
Visibility: 1.86 miles (2.99 km)
Ceiling: unknown
Clouds: missing
Weather: BR  (mist)

 MAPA DE AEROPUERTO

 INFORMACIÓN DE PISTA
Pista 05 Longitud 9843 ft Ancho 197 ft
Elevación 2768 ft Umbral desplazado 0 ft Rumbo de pista 45
Pista 23 Longitud 9843 ft Ancho 197 ft
Elevación 2775 ft Umbral desplazado 0 ft Rumbo de pista 225
Pista 15 Longitud 2976 ft Ancho 197 ft
Elevación 2770 ft Umbral desplazado 0 ft Rumbo de pista 144
Pista 33 Longitud 2976 ft Ancho 197 ft
Elevación 2771 ft Umbral desplazado 0 ft Rumbo de pista 324

 FRECUANCIAS DEL AEROPUERTO
Tipo TWR Nombre TWR Frecuencia 122.2 MHZ

 RADIO AYUDAS DEL AEROPUERTO
Tipo TACAN Nombre Valladolid Frecuencia 108200 KHZ
Tipo NDB Nombre Valladolid Frecuencia 342 KHZ

AVISO LEGAL - POLITICA DE COOKIES - POLITICA DE PRIVACIDAD